createdAt,value
2019-05-03T00:01:17.581Z,2.70
2019-05-03T00:03:47.706Z,2.90
2019-05-03T00:06:17.850Z,2.70
2019-05-03T00:08:47.976Z,2.57
2019-05-03T00:11:19.081Z,2.50
2019-05-03T00:13:49.226Z,2.43
2019-05-03T00:16:24.144Z,2.40
2019-05-03T00:18:54.268Z,2.53
2019-05-03T00:21:24.418Z,2.60
2019-05-03T00:23:54.545Z,3.20
2019-05-03T00:26:24.688Z,2.70
2019-05-03T00:28:54.880Z,2.60
2019-05-03T00:31:25.022Z,2.70
2019-05-03T00:33:56.796Z,2.63
2019-05-03T00:36:28.575Z,2.70
2019-05-03T00:39:01.959Z,2.60
2019-05-03T00:41:33.762Z,2.60
2019-05-03T00:44:03.893Z,2.73
2019-05-03T00:46:34.028Z,2.70
2019-05-03T00:49:04.158Z,2.80
2019-05-03T00:51:34.284Z,2.30
2019-05-03T00:54:04.542Z,2.87
2019-05-03T00:56:34.654Z,2.57
2019-05-03T00:59:04.856Z,2.70
2019-05-03T01:01:34.989Z,2.50
2019-05-03T01:04:05.112Z,2.60
2019-05-03T01:06:35.249Z,2.70
2019-05-03T01:09:08.328Z,2.70
2019-05-03T01:11:38.462Z,2.30
2019-05-03T01:14:08.593Z,2.40
2019-05-03T01:16:38.733Z,2.80
2019-05-03T01:19:08.878Z,3.00
2019-05-03T01:21:39.018Z,2.60
2019-05-03T01:24:09.222Z,2.20
2019-05-03T01:26:39.426Z,2.50
2019-05-03T01:29:09.559Z,2.90
2019-05-03T01:31:39.690Z,2.60
2019-05-03T01:34:09.813Z,2.40
2019-05-03T01:36:39.965Z,2.43
2019-05-03T01:39:10.090Z,2.60
2019-05-03T01:41:41.665Z,2.90
2019-05-03T01:44:12.486Z,2.53
2019-05-03T01:46:42.740Z,2.63
2019-05-03T01:49:20.049Z,2.33
2019-05-03T01:52:06.905Z,2.30
2019-05-03T01:54:37.036Z,2.30
2019-05-03T01:57:07.189Z,2.23
2019-05-03T01:59:37.316Z,2.40
2019-05-03T02:02:09.108Z,2.60
2019-05-03T02:04:49.617Z,2.30
2019-05-03T02:07:19.756Z,2.27
2019-05-03T02:09:51.886Z,2.53
2019-05-03T02:12:22.164Z,2.47
2019-05-03T02:14:52.415Z,2.43
2019-05-03T02:17:22.710Z,2.37
2019-05-03T02:19:52.862Z,2.40
2019-05-03T02:22:22.991Z,2.13
2019-05-03T02:24:53.118Z,2.47
2019-05-03T02:27:23.263Z,2.27
2019-05-03T02:29:53.385Z,2.50
2019-05-03T02:32:23.542Z,2.57
2019-05-03T02:34:53.767Z,2.83
2019-05-03T02:37:23.864Z,2.73
2019-05-03T02:39:56.160Z,2.23
2019-05-03T02:42:26.715Z,2.43
2019-05-03T02:44:57.852Z,2.63
2019-05-03T02:47:35.763Z,2.30
2019-05-03T02:50:09.265Z,2.43
2019-05-03T02:52:39.412Z,2.47
2019-05-03T02:55:12.042Z,2.10
2019-05-03T02:57:42.182Z,2.50
2019-05-03T03:00:16.141Z,2.20
2019-05-03T03:02:45.705Z,2.40
2019-05-03T03:05:16.779Z,2.37
2019-05-03T03:07:47.152Z,2.07
2019-05-03T03:10:17.277Z,2.30
2019-05-03T03:12:48.688Z,2.47
2019-05-03T03:15:18.825Z,2.33
2019-05-03T03:17:48.976Z,2.10
2019-05-03T03:20:19.097Z,2.47
2019-05-03T03:22:49.251Z,2.40
2019-05-03T03:25:21.019Z,2.27
2019-05-03T03:27:51.158Z,2.20
2019-05-03T03:30:40.028Z,2.10
2019-05-03T03:33:17.516Z,2.17
2019-05-03T03:35:49.224Z,2.20
2019-05-03T03:38:20.463Z,2.40
2019-05-03T03:40:50.584Z,2.20
2019-05-03T03:43:20.720Z,2.23
2019-05-03T03:45:51.519Z,2.30
2019-05-03T03:48:21.652Z,1.87
2019-05-03T03:50:51.951Z,2.47
2019-05-03T03:53:22.097Z,2.13
2019-05-03T03:55:52.226Z,2.23
2019-05-03T03:58:23.229Z,2.43
2019-05-03T04:00:55.513Z,2.30
2019-05-03T04:03:26.284Z,2.00
2019-05-03T04:05:56.724Z,1.87
2019-05-03T04:08:26.872Z,1.97
2019-05-03T04:10:56.996Z,2.27
2019-05-03T04:13:27.693Z,2.27
2019-05-03T04:16:08.426Z,2.40
2019-05-03T04:18:40.563Z,2.23
2019-05-03T04:21:10.693Z,2.23
2019-05-03T04:23:41.098Z,2.40
2019-05-03T04:26:11.234Z,2.00
2019-05-03T04:28:41.736Z,2.07
2019-05-03T04:31:11.877Z,2.30
2019-05-03T04:33:42.007Z,2.50
2019-05-03T04:36:12.146Z,2.33
2019-05-03T04:38:45.189Z,2.10
2019-05-03T04:41:15.927Z,1.93
2019-05-03T04:43:46.117Z,1.90
2019-05-03T04:46:17.882Z,2.30
2019-05-03T04:48:48.015Z,2.33
2019-05-03T04:51:18.138Z,2.17
2019-05-03T04:53:49.898Z,2.00
2019-05-03T04:56:20.033Z,2.13
2019-05-03T04:58:50.164Z,1.83
2019-05-03T05:01:20.294Z,2.13
2019-05-03T05:03:50.644Z,2.07
2019-05-03T05:06:20.757Z,2.13
2019-05-03T05:08:51.368Z,2.17
2019-05-03T05:11:21.490Z,2.00
2019-05-03T05:13:51.625Z,2.10
2019-05-03T05:16:21.762Z,2.10
2019-05-03T05:18:55.851Z,2.10
2019-05-03T05:21:27.014Z,1.90
2019-05-03T05:23:58.799Z,2.00
2019-05-03T05:26:35.204Z,1.93
2019-05-03T05:29:06.699Z,1.83
2019-05-03T05:31:37.006Z,2.23
2019-05-03T05:34:08.871Z,1.80
2019-05-03T05:36:39.143Z,2.07
2019-05-03T05:39:09.346Z,2.00
2019-05-03T05:41:39.512Z,1.80
2019-05-03T05:44:09.634Z,1.63
2019-05-03T05:46:41.475Z,1.60
2019-05-03T05:49:17.126Z,2.00
2019-05-03T05:51:47.292Z,1.70
2019-05-03T05:54:17.412Z,2.00
2019-05-03T05:56:49.188Z,1.90
2019-05-03T05:59:24.768Z,1.70
2019-05-03T06:01:59.362Z,1.97
2019-05-03T06:04:29.491Z,1.70
2019-05-03T06:07:06.819Z,1.60
2019-05-03T06:09:44.847Z,1.80
2019-05-03T06:12:16.606Z,1.80
2019-05-03T06:14:48.378Z,1.83
2019-05-03T06:17:26.010Z,2.00
2019-05-03T06:20:00.708Z,1.70
2019-05-03T06:22:38.326Z,1.80
2019-05-03T06:25:19.297Z,1.90
2019-05-03T06:27:49.625Z,1.80
2019-05-03T06:30:21.472Z,1.77
2019-05-03T06:32:51.597Z,1.93
2019-05-03T06:35:21.731Z,1.90
2019-05-03T06:37:51.876Z,2.03
2019-05-03T06:40:26.051Z,2.83
2019-05-03T06:43:08.500Z,3.30
2019-05-03T06:45:29.385Z,3.97
2019-05-03T06:47:59.575Z,4.20
2019-05-03T06:50:29.869Z,4.90
2019-05-03T06:53:05.790Z,5.00
2019-05-03T06:55:32.276Z,5.37
2019-05-03T06:58:02.439Z,5.07
2019-05-03T07:00:35.081Z,5.67
2019-05-03T07:03:19.434Z,5.60
2019-05-03T07:05:51.175Z,5.77
2019-05-03T07:08:40.701Z,5.30
2019-05-03T07:11:10.901Z,5.77
2019-05-03T07:13:41.141Z,5.67
2019-05-03T07:16:11.346Z,5.27
2019-05-03T07:18:41.497Z,5.10
2019-05-03T07:21:11.772Z,5.33
2019-05-03T07:23:42.025Z,5.53
2019-05-03T07:26:12.191Z,4.70
2019-05-03T07:28:46.962Z,4.60
2019-05-03T07:31:15.110Z,4.70
2019-05-03T07:33:45.375Z,4.33
2019-05-03T07:36:15.615Z,4.60
2019-05-03T07:38:45.922Z,4.23
2019-05-03T07:41:16.056Z,4.43
2019-05-03T07:43:46.211Z,3.87
2019-05-03T07:46:16.334Z,3.83
2019-05-03T07:48:46.476Z,3.77
2019-05-03T07:51:16.616Z,4.20
2019-05-03T07:53:46.777Z,4.13
2019-05-03T07:56:17.486Z,4.17
2019-05-03T07:58:59.989Z,4.00
2019-05-03T08:01:26.448Z,4.00
2019-05-03T08:03:57.042Z,4.90
2019-05-03T08:06:27.178Z,5.00
2019-05-03T08:08:57.320Z,5.37
2019-05-03T08:11:27.511Z,5.70
2019-05-03T08:13:57.767Z,5.57
2019-05-03T08:16:27.901Z,5.30
2019-05-03T08:18:58.041Z,4.60
2019-05-03T08:21:29.150Z,4.13
2019-05-03T08:23:59.426Z,3.53
2019-05-03T08:26:29.719Z,4.00
2019-05-03T08:29:13.338Z,3.50
2019-05-03T08:31:40.108Z,3.43
2019-05-03T08:34:15.374Z,2.43
2019-05-03T08:36:59.253Z,3.07
2019-05-03T08:39:30.351Z,3.47
2019-05-03T08:42:04.936Z,3.07
2019-05-03T08:44:35.795Z,3.33
2019-05-03T08:47:05.991Z,3.00
2019-05-03T08:49:36.139Z,3.23
2019-05-03T08:52:06.265Z,2.97
2019-05-03T08:54:36.402Z,3.17
2019-05-03T08:57:06.547Z,2.90
2019-05-03T08:59:36.683Z,2.90
2019-05-03T09:02:13.794Z,2.97
2019-05-03T09:04:42.891Z,2.80
2019-05-03T09:07:10.583Z,3.17
2019-05-03T09:09:47.819Z,2.93
2019-05-03T09:12:17.931Z,3.17
2019-05-03T09:14:48.591Z,2.70
2019-05-03T09:17:18.884Z,2.87
2019-05-03T09:19:49.014Z,2.60
2019-05-03T09:22:19.140Z,2.70
2019-05-03T09:24:49.335Z,2.73
2019-05-03T09:27:19.462Z,2.87
2019-05-03T09:29:49.728Z,2.50
2019-05-03T09:32:20.831Z,2.30
2019-05-03T09:34:50.970Z,2.80
2019-05-03T09:37:21.102Z,2.47
2019-05-03T09:39:51.237Z,2.50
2019-05-03T09:42:24.639Z,2.40
2019-05-03T09:44:55.629Z,2.33
2019-05-03T09:47:26.261Z,2.43
2019-05-03T09:49:56.402Z,2.63
2019-05-03T09:52:26.538Z,2.30
2019-05-03T09:54:58.304Z,2.10
2019-05-03T09:57:28.439Z,2.00
2019-05-03T10:00:00.063Z,2.30
2019-05-03T10:02:35.288Z,2.60
2019-05-03T10:05:06.363Z,2.10
2019-05-03T10:07:36.501Z,2.50
2019-05-03T10:10:08.427Z,2.43
2019-05-03T10:12:38.565Z,2.47
2019-05-03T10:15:08.689Z,2.73
2019-05-03T10:17:40.471Z,2.03
2019-05-03T10:20:12.231Z,2.57
2019-05-03T10:22:42.375Z,2.10
2019-05-03T10:25:12.495Z,2.40
2019-05-03T10:27:45.903Z,2.87
2019-05-03T10:30:20.658Z,3.00
2019-05-03T10:32:52.443Z,2.20
2019-05-03T10:35:24.481Z,4.13
2019-05-03T10:37:54.947Z,5.40
2019-05-03T10:40:27.372Z,6.50
2019-05-03T10:42:57.514Z,6.23
2019-05-03T10:45:28.198Z,6.80
2019-05-03T10:47:58.463Z,6.73
2019-05-03T10:50:29.510Z,5.57
2019-05-03T10:53:01.296Z,5.93
2019-05-03T10:55:31.485Z,5.73
2019-05-03T10:58:09.017Z,5.27
2019-05-03T11:00:46.207Z,5.20
2019-05-03T11:03:13.427Z,5.20
2019-05-03T11:05:45.434Z,4.90
2019-05-03T11:08:15.664Z,4.87
2019-05-03T11:10:45.798Z,4.50
2019-05-03T11:13:15.948Z,4.63
2019-05-03T11:15:46.067Z,4.37
2019-05-03T11:18:16.216Z,4.57
2019-05-03T11:20:46.346Z,4.10
2019-05-03T11:23:16.566Z,3.80
2019-05-03T11:25:46.723Z,3.70
2019-05-03T11:28:19.216Z,3.90
2019-05-03T11:30:56.391Z,3.50
2019-05-03T11:33:24.735Z,4.03
2019-05-03T11:35:59.606Z,3.60
2019-05-03T11:38:31.413Z,3.60
2019-05-03T11:41:01.550Z,3.33
2019-05-03T11:43:32.081Z,3.13
2019-05-03T11:46:02.215Z,3.50
2019-05-03T11:48:34.743Z,3.10
2019-05-03T11:51:04.385Z,3.40
2019-05-03T11:53:35.650Z,3.17
2019-05-03T11:56:05.986Z,3.07
2019-05-03T11:58:36.125Z,3.10
2019-05-03T12:01:15.771Z,2.80
2019-05-03T12:03:45.154Z,3.27
2019-05-03T12:06:16.006Z,3.23
2019-05-03T12:08:46.231Z,3.33
2019-05-03T12:11:16.349Z,3.03
2019-05-03T12:13:46.489Z,2.90
2019-05-03T12:16:23.984Z,2.93
2019-05-03T12:18:53.753Z,3.30
2019-05-03T12:21:22.279Z,2.83
2019-05-03T12:23:56.061Z,2.50
2019-05-03T12:26:34.314Z,2.83
2019-05-03T12:28:57.485Z,2.37
2019-05-03T12:31:36.685Z,2.93
2019-05-03T12:33:59.493Z,2.67
2019-05-03T12:36:29.636Z,2.40
2019-05-03T12:38:59.782Z,3.00
2019-05-03T12:41:29.919Z,3.10
2019-05-03T12:44:00.058Z,2.60
2019-05-03T12:46:30.187Z,2.77
2019-05-03T12:49:00.505Z,2.80
2019-05-03T12:51:30.701Z,2.90
2019-05-03T12:54:00.759Z,3.20
2019-05-03T12:56:32.940Z,2.80
2019-05-03T12:59:05.797Z,3.83
2019-05-03T13:01:41.639Z,3.30
2019-05-03T13:04:22.024Z,3.50
2019-05-03T13:07:09.040Z,3.27
2019-05-03T13:09:39.184Z,3.20
2019-05-03T13:12:10.960Z,2.77
2019-05-03T13:14:41.182Z,2.87
2019-05-03T13:17:11.522Z,2.70
2019-05-03T13:19:41.695Z,2.57
2019-05-03T13:22:11.832Z,3.50
2019-05-03T13:24:44.702Z,8.20
2019-05-03T13:27:14.973Z,13.60
2019-05-03T13:29:45.445Z,9.70
2019-05-03T13:32:15.689Z,7.80
2019-05-03T13:34:45.836Z,7.97
2019-05-03T13:37:16.212Z,6.90
2019-05-03T13:39:46.340Z,6.30
2019-05-03T13:42:16.460Z,6.30
2019-05-03T13:44:46.591Z,5.97
2019-05-03T13:47:16.717Z,5.80
2019-05-03T13:49:46.946Z,5.43
2019-05-03T13:52:17.115Z,5.10
2019-05-03T13:54:47.896Z,3.90
2019-05-03T13:57:18.149Z,4.23
2019-05-03T13:59:48.291Z,3.97
2019-05-03T14:02:19.332Z,3.70
2019-05-03T14:04:52.800Z,3.30
2019-05-03T14:07:21.579Z,4.07
2019-05-03T14:09:51.734Z,3.67
2019-05-03T14:12:21.882Z,2.97
2019-05-03T14:14:56.111Z,2.83
2019-05-03T14:17:28.304Z,2.80
2019-05-03T14:20:01.161Z,2.83
2019-05-03T14:22:35.764Z,2.40
2019-05-03T14:25:06.993Z,2.43
2019-05-03T14:27:38.161Z,2.30
2019-05-03T14:30:08.899Z,2.37
2019-05-03T14:32:39.400Z,1.97
2019-05-03T14:35:09.839Z,2.30
2019-05-03T14:37:40.041Z,2.37
2019-05-03T14:40:10.214Z,1.80
2019-05-03T14:42:40.694Z,2.30
2019-05-03T14:45:10.838Z,2.10
2019-05-03T14:47:40.965Z,2.10
2019-05-03T14:50:11.130Z,2.40
2019-05-03T14:52:41.378Z,2.00
2019-05-03T14:55:19.148Z,1.97
2019-05-03T14:57:55.252Z,1.80
2019-05-03T15:00:27.308Z,1.77
2019-05-03T15:02:59.085Z,1.60
2019-05-03T15:05:29.221Z,1.80
2019-05-03T15:08:00.328Z,2.10
2019-05-03T15:10:31.457Z,2.10
2019-05-03T15:13:01.837Z,1.77
2019-05-03T15:15:32.102Z,1.57
2019-05-03T15:18:02.256Z,1.60
2019-05-03T15:20:34.650Z,1.67
2019-05-03T15:23:05.568Z,1.70
2019-05-03T15:25:35.878Z,1.60
2019-05-03T15:28:06.015Z,1.73
2019-05-03T15:30:36.152Z,1.60
2019-05-03T15:33:06.628Z,1.60
2019-05-03T15:35:36.782Z,1.60
2019-05-03T15:38:06.942Z,1.60
2019-05-03T15:40:37.114Z,1.73
2019-05-03T15:43:08.883Z,1.30
2019-05-03T15:45:56.808Z,1.50
2019-05-03T15:48:28.542Z,1.40
2019-05-03T15:50:59.002Z,1.50
2019-05-03T15:53:29.527Z,1.70
2019-05-03T15:55:59.903Z,1.50
2019-05-03T15:58:30.019Z,1.50
2019-05-03T16:01:00.287Z,1.47
2019-05-03T16:03:30.836Z,1.33
2019-05-03T16:06:01.287Z,1.40
2019-05-03T16:08:32.011Z,2.03
2019-05-03T16:11:02.320Z,1.83
2019-05-03T16:13:32.656Z,1.60
2019-05-03T16:16:04.345Z,1.50
2019-05-03T16:18:35.739Z,1.50
2019-05-03T16:21:06.103Z,1.10
2019-05-03T16:23:37.307Z,1.77
2019-05-03T16:26:07.688Z,1.83
2019-05-03T16:28:42.151Z,1.33
2019-05-03T16:31:13.927Z,1.60
2019-05-03T16:33:45.707Z,1.50
2019-05-03T16:36:16.010Z,1.43
2019-05-03T16:38:46.159Z,1.20
2019-05-03T16:41:17.921Z,1.57
2019-05-03T16:43:48.179Z,1.33
2019-05-03T16:46:18.325Z,1.43
2019-05-03T16:48:48.511Z,1.40
2019-05-03T16:51:18.649Z,1.37
2019-05-03T16:53:49.024Z,1.27
2019-05-03T16:56:19.206Z,1.63
2019-05-03T16:58:49.337Z,1.50
2019-05-03T17:01:19.465Z,1.30
2019-05-03T17:03:51.409Z,1.37
2019-05-03T17:06:26.525Z,1.50
2019-05-03T17:09:01.119Z,1.40
2019-05-03T17:11:34.635Z,1.13
2019-05-03T17:14:05.144Z,1.50
2019-05-03T17:16:35.292Z,1.37
2019-05-03T17:19:06.504Z,1.10
2019-05-03T17:21:36.636Z,1.23
2019-05-03T17:24:06.768Z,1.50
2019-05-03T17:26:37.061Z,1.20
2019-05-03T17:29:07.278Z,1.20
2019-05-03T17:31:37.418Z,1.30
2019-05-03T17:34:07.725Z,1.20
2019-05-03T17:36:38.909Z,1.30
2019-05-03T17:39:10.753Z,1.43
2019-05-03T17:41:48.345Z,1.20
2019-05-03T17:44:22.694Z,1.13
2019-05-03T17:46:54.824Z,1.50
2019-05-03T17:49:26.199Z,1.20
2019-05-03T17:51:57.966Z,1.30
2019-05-03T17:54:29.844Z,1.07
2019-05-03T17:57:10.693Z,1.30
2019-05-03T17:59:51.467Z,1.23
2019-05-03T18:02:26.402Z,1.10
2019-05-03T18:05:14.670Z,1.40
2019-05-03T18:07:57.044Z,1.17
2019-05-03T18:10:28.909Z,1.40
2019-05-03T18:12:59.029Z,1.27
2019-05-03T18:15:29.198Z,1.20
2019-05-03T18:18:00.478Z,1.30
2019-05-03T18:20:30.620Z,1.50
2019-05-03T18:23:00.818Z,1.60
2019-05-03T18:25:31.921Z,1.30
2019-05-03T18:28:02.079Z,1.20
2019-05-03T18:30:32.303Z,1.30
2019-05-03T18:33:02.575Z,1.17
2019-05-03T18:35:32.822Z,1.20
2019-05-03T18:38:02.991Z,1.27
2019-05-03T18:40:36.661Z,1.13
2019-05-03T18:43:08.426Z,1.20
2019-05-03T18:45:49.217Z,1.00
2019-05-03T18:48:19.425Z,1.27
2019-05-03T18:50:49.567Z,0.93
2019-05-03T18:53:19.691Z,1.20
2019-05-03T18:55:49.825Z,1.10
2019-05-03T18:58:19.950Z,1.27
2019-05-03T19:00:50.144Z,1.23
2019-05-03T19:03:20.280Z,1.07
2019-05-03T19:05:58.068Z,1.20
2019-05-03T19:08:35.876Z,1.03
2019-05-03T19:11:10.451Z,1.13
2019-05-03T19:13:48.057Z,1.13
2019-05-03T19:16:35.176Z,1.10
2019-05-03T19:19:06.857Z,1.10
2019-05-03T19:21:37.000Z,1.30
2019-05-03T19:24:07.205Z,1.00
2019-05-03T19:26:37.663Z,1.10
2019-05-03T19:29:08.110Z,1.13
2019-05-03T19:31:38.861Z,1.07
2019-05-03T19:34:09.367Z,1.03
2019-05-03T19:36:40.197Z,0.93
2019-05-03T19:39:14.401Z,1.50
2019-05-03T19:41:44.958Z,1.20
2019-05-03T19:44:15.313Z,0.90
2019-05-03T19:46:45.549Z,1.23
2019-05-03T19:49:15.854Z,0.90
2019-05-03T19:51:46.539Z,0.90
2019-05-03T19:54:17.177Z,1.00
2019-05-03T19:56:47.509Z,1.07
2019-05-03T19:59:35.753Z,1.20
2019-05-03T20:02:17.588Z,0.97
2019-05-03T20:04:59.938Z,0.87
2019-05-03T20:07:32.149Z,1.10
2019-05-03T20:10:02.377Z,0.90
2019-05-03T20:12:32.910Z,1.10
2019-05-03T20:15:05.331Z,1.00
2019-05-03T20:17:35.763Z,0.93
2019-05-03T20:20:08.907Z,1.00
2019-05-03T20:22:39.154Z,0.97
2019-05-03T20:25:09.557Z,1.30
2019-05-03T20:27:39.702Z,1.10
2019-05-03T20:30:09.891Z,0.80
2019-05-03T20:32:40.113Z,0.90
2019-05-03T20:35:18.448Z,0.90
2019-05-03T20:37:44.897Z,0.80
2019-05-03T20:40:15.468Z,0.97
2019-05-03T20:43:05.792Z,0.80
2019-05-03T20:45:38.752Z,1.20
2019-05-03T20:48:10.582Z,0.67
2019-05-03T20:50:40.882Z,1.00
2019-05-03T20:53:11.050Z,0.90
2019-05-03T20:55:41.342Z,1.00
2019-05-03T20:58:11.552Z,1.00
2019-05-03T21:00:41.669Z,1.13
2019-05-03T21:03:11.995Z,0.80
2019-05-03T21:05:42.189Z,0.80
2019-05-03T21:08:12.363Z,1.07
2019-05-03T21:10:44.549Z,1.07
2019-05-03T21:13:15.399Z,1.00
2019-05-03T21:16:03.215Z,0.80
2019-05-03T21:18:35.103Z,0.87
2019-05-03T21:21:16.603Z,1.10
2019-05-03T21:24:00.969Z,0.90
2019-05-03T21:26:31.448Z,0.93
2019-05-03T21:29:01.669Z,0.83
2019-05-03T21:31:35.181Z,0.87
2019-05-03T21:34:05.762Z,1.00
2019-05-03T21:36:35.967Z,0.80
2019-05-03T21:39:07.320Z,0.80
2019-05-03T21:41:38.129Z,0.70
2019-05-03T21:44:12.485Z,1.00
2019-05-03T21:46:48.646Z,0.73
2019-05-03T21:49:25.207Z,0.90
2019-05-03T21:51:55.155Z,1.00
2019-05-03T21:54:25.404Z,0.80
2019-05-03T21:56:57.974Z,0.90
2019-05-03T21:59:29.551Z,0.70
2019-05-03T22:01:59.829Z,0.80
2019-05-03T22:04:30.181Z,0.97
2019-05-03T22:07:00.363Z,0.90
2019-05-03T22:09:30.513Z,0.87
2019-05-03T22:12:00.691Z,0.93
2019-05-03T22:14:41.365Z,0.80
2019-05-03T22:17:14.870Z,0.97
2019-05-03T22:19:46.736Z,0.90
2019-05-03T22:22:25.539Z,0.80
2019-05-03T22:24:57.968Z,0.83
2019-05-03T22:27:29.779Z,0.77
2019-05-03T22:30:01.026Z,0.90
2019-05-03T22:32:31.178Z,0.87
2019-05-03T22:35:01.516Z,0.70
2019-05-03T22:37:31.675Z,1.00
2019-05-03T22:40:01.850Z,1.00
2019-05-03T22:42:32.015Z,0.70
2019-05-03T22:45:02.173Z,0.90
2019-05-03T22:47:32.355Z,0.67
2019-05-03T22:50:02.549Z,0.97
2019-05-03T22:52:34.834Z,0.80
2019-05-03T22:55:07.324Z,1.13
2019-05-03T22:57:37.509Z,0.90
2019-05-03T23:00:08.718Z,0.80
2019-05-03T23:02:40.548Z,1.00
2019-05-03T23:05:10.718Z,0.80
2019-05-03T23:07:40.896Z,0.90
2019-05-03T23:10:11.058Z,1.00
2019-05-03T23:12:42.260Z,0.63
2019-05-03T23:15:12.844Z,0.80
2019-05-03T23:17:45.189Z,0.80
2019-05-03T23:20:26.247Z,0.80
2019-05-03T23:22:56.474Z,0.70
2019-05-03T23:25:26.651Z,0.80
2019-05-03T23:27:56.815Z,0.73
2019-05-03T23:30:27.081Z,0.87
2019-05-03T23:32:57.367Z,0.80
2019-05-03T23:35:27.737Z,0.77
2019-05-03T23:37:57.980Z,0.90
2019-05-03T23:40:28.405Z,0.80
2019-05-03T23:42:58.656Z,0.70
2019-05-03T23:45:28.836Z,0.60
2019-05-03T23:47:59.186Z,1.10
2019-05-03T23:50:29.441Z,0.90
2019-05-03T23:52:59.700Z,0.87
2019-05-03T23:55:37.649Z,0.80
2019-05-03T23:58:08.043Z,0.83
